Time;durP1;ratioP1;P1;durP2;ratioP2;P2;SDS_P1;SDS_P2;PMS_P1;PMS_P2;Temp;Humidity;BMP_temperature;BMP_pressure;BME280_temperature;BME280_humidity;BME280_pressure;Samples;Min_cycle;Max_cycle;Signal;HPM_P1;HPM_P2
2022/01/31 00:00:30;;;;;;;20.80;5.72;;;3.30;99.90;;;;;;5084310;27;20460;-95
2022/01/31 00:02:56;;;;;;;19.33;5.18;;;4.20;99.90;;;;;;5089797;27;20110;-94
2022/01/31 00:05:22;;;;;;;18.52;5.20;;;3.30;99.90;;;;;;5074636;27;20039;-94
2022/01/31 00:07:48;;;;;;;21.90;4.50;;;3.90;99.90;;;;;;5091104;27;20058;-94
2022/01/31 00:10:16;;;;;;;24.02;5.72;;;3.50;99.90;;;;;;5096257;28;20032;-94
2022/01/31 00:12:52;;;;;;;19.95;5.97;;;3.30;99.90;;;;;;5069510;28;20043;-95
2022/01/31 00:15:18;;;;;;;20.33;6.53;;;3.40;99.90;;;;;;5077813;27;20042;-94
2022/01/31 00:17:44;;;;;;;23.42;6.00;;;4.80;99.90;;;;;;5095938;27;20446;-95
2022/01/31 00:20:10;;;;;;;12.07;4.72;;;3.80;99.90;;;;;;5078795;27;20045;-94
2022/01/31 00:22:35;;;;;;;18.40;6.35;;;3.40;99.90;;;;;;5093358;28;20031;-93
2022/01/31 00:25:01;;;;;;;21.83;5.53;;;4.30;99.90;;;;;;5096271;28;20116;-93
2022/01/31 00:27:27;;;;;;;21.02;6.00;;;3.80;99.90;;;;;;5088791;28;20111;-95
2022/01/31 00:29:53;;;;;;;25.08;6.25;;;4.80;99.90;;;;;;5094795;28;20042;-94
2022/01/31 00:32:18;;;;;;;17.45;6.13;;;3.50;99.90;;;;;;5090717;28;20470;-95
2022/01/31 00:34:44;;;;;;;18.23;5.70;;;4.10;99.90;;;;;;5068114;28;20484;-94
2022/01/31 00:37:10;;;;;;;22.30;5.80;;;4.60;99.90;;;;;;5076422;27;20614;-94
2022/01/31 00:39:36;;;;;;;13.85;5.53;;;3.60;99.90;;;;;;5089483;28;20032;-94
2022/01/31 00:42:04;;;;;;;15.60;5.75;;;4.50;99.90;;;;;;5079360;27;20038;-94
2022/01/31 00:44:41;;;;;;;16.17;5.75;;;3.40;99.90;;;;;;5088782;27;20123;-95
2022/01/31 00:47:18;;;;;;;22.75;5.97;;;4.30;99.90;;;;;;5105275;27;20096;-93
2022/01/31 00:50:03;;;;;;;19.55;5.55;;;3.40;99.90;;;;;;5085444;27;20553;-93
2022/01/31 00:52:28;;;;;;;19.15;5.65;;;3.40;99.90;;;;;;5076170;27;20045;-93
2022/01/31 00:54:54;;;;;;;16.40;5.95;;;5.10;99.90;;;;;;5070886;27;20095;-94
2022/01/31 00:57:20;;;;;;;14.93;5.45;;;4.40;99.90;;;;;;5072004;27;20403;-94
2022/01/31 00:59:49;;;;;;;13.00;5.47;;;3.50;99.90;;;;;;5065687;27;20047;-95
2022/01/31 01:02:15;;;;;;;19.23;5.30;;;5.00;99.90;;;;;;5070775;27;20472;-95
2022/01/31 01:04:40;;;;;;;20.23;5.70;;;3.50;99.90;;;;;;5074135;28;20043;-94
2022/01/31 01:07:06;;;;;;;18.98;6.03;;;4.00;99.90;;;;;;5077837;28;20484;-94
2022/01/31 01:09:32;;;;;;;15.63;6.35;;;4.80;99.90;;;;;;5116030;27;20039;-95
2022/01/31 01:11:58;;;;;;;13.73;5.47;;;4.80;99.90;;;;;;5073672;28;20039;-94
2022/01/31 01:14:23;;;;;;;17.73;5.63;;;3.50;99.90;;;;;;5074716;27;20044;-95
2022/01/31 01:16:49;;;;;;;20.52;5.60;;;4.30;99.90;;;;;;5092614;27;20555;-94
2022/01/31 01:19:15;;;;;;;15.15;4.78;;;4.30;99.90;;;;;;5097705;27;20046;-94
2022/01/31 01:21:40;;;;;;;20.90;6.43;;;4.60;99.90;;;;;;5088798;27;20035;-93
2022/01/31 01:24:07;;;;;;;19.23;5.68;;;3.50;99.90;;;;;;5081989;27;20484;-94
2022/01/31 01:26:32;;;;;;;15.32;6.05;;;3.50;99.90;;;;;;5105657;27;20541;-95
2022/01/31 01:28:58;;;;;;;18.70;6.38;;;3.50;99.90;;;;;;5078212;27;20111;-94
2022/01/31 01:31:24;;;;;;;23.00;7.57;;;4.80;99.90;;;;;;5097066;28;20089;-95
2022/01/31 01:33:52;;;;;;;19.48;6.10;;;3.60;99.90;;;;;;5087542;27;20031;-94
2022/01/31 01:36:19;;;;;;;24.38;7.22;;;4.80;99.90;;;;;;5079128;28;20110;-94
2022/01/31 01:38:45;;;;;;;16.02;6.75;;;4.10;99.90;;;;;;5097004;28;20076;-94
2022/01/31 01:41:10;;;;;;;22.08;7.03;;;4.50;99.90;;;;;;5079564;28;20404;-96
2022/01/31 01:43:38;;;;;;;16.92;7.18;;;4.60;99.90;;;;;;5075967;27;20065;-94
2022/01/31 01:46:04;;;;;;;17.88;7.03;;;3.30;99.90;;;;;;5074338;27;20032;-95
2022/01/31 01:48:30;;;;;;;18.15;6.85;;;3.20;99.90;;;;;;5106686;27;20413;-94
2022/01/31 01:50:56;;;;;;;22.30;8.52;;;3.80;99.90;;;;;;5103154;28;20039;-96
2022/01/31 01:53:23;;;;;;;21.25;7.72;;;3.70;99.90;;;;;;5105273;27;20085;-95
2022/01/31 01:55:51;;;;;;;24.02;9.50;;;4.40;99.90;;;;;;5094017;27;20039;-96
2022/01/31 01:58:17;;;;;;;21.27;9.68;;;3.00;99.90;;;;;;5109004;27;20122;-94
2022/01/31 02:00:50;;;;;;;25.55;9.73;;;3.10;99.90;;;;;;5086462;27;20126;-96
2022/01/31 02:03:20;;;;;;;22.33;10.35;;;2.90;99.90;;;;;;5099220;27;20122;-94
2022/01/31 02:05:47;;;;;;;22.58;8.82;;;4.20;99.90;;;;;;5097570;27;20415;-96
2022/01/31 02:08:14;;;;;;;30.73;10.65;;;2.70;99.90;;;;;;5076952;28;20035;-95
2022/01/31 02:10:41;;;;;;;16.38;9.63;;;3.40;99.90;;;;;;5106768;28;20403;-96
2022/01/31 02:13:08;;;;;;;33.00;11.82;;;2.60;99.90;;;;;;5072153;28;20047;-96
2022/01/31 02:15:34;;;;;;;23.38;10.55;;;3.50;99.90;;;;;;5098902;28;20031;-96
2022/01/31 02:18:01;;;;;;;19.70;9.73;;;2.30;99.90;;;;;;5129236;27;20066;-96
2022/01/31 02:20:27;;;;;;;24.38;12.05;;;3.50;99.90;;;;;;5087890;27;20085;-96
2022/01/31 02:22:53;;;;;;;26.13;12.45;;;1.80;99.90;;;;;;5091540;27;20035;-96
2022/01/31 02:25:19;;;;;;;25.27;12.57;;;3.40;99.90;;;;;;5111635;28;20061;-96
2022/01/31 02:27:45;;;;;;;25.38;12.88;;;2.10;99.90;;;;;;5093432;27;20027;-96
2022/01/31 02:30:13;;;;;;;33.42;13.90;;;2.20;99.90;;;;;;5104256;28;20039;-96
2022/01/31 02:32:39;;;;;;;27.45;12.70;;;2.70;99.90;;;;;;5117440;27;20092;-96
2022/01/31 02:35:06;;;;;;;24.92;11.05;;;3.50;99.90;;;;;;5108909;27;20069;-96
2022/01/31 02:37:33;;;;;;;31.88;13.45;;;2.00;99.90;;;;;;5073425;28;20097;-96
2022/01/31 02:39:58;;;;;;;25.75;14.35;;;2.50;99.90;;;;;;5091866;27;20041;-96
2022/01/31 02:42:24;;;;;;;28.27;13.50;;;2.50;99.90;;;;;;5097087;28;20039;-96
2022/01/31 02:44:50;;;;;;;32.83;14.52;;;2.10;99.90;;;;;;5091861;28;20032;-96
2022/01/31 02:47:24;;;;;;;35.78;15.00;;;3.50;99.90;;;;;;5104462;27;20118;-95
2022/01/31 02:50:00;;;;;;;27.92;13.35;;;2.10;99.90;;;;;;5090593;28;20036;-96
2022/01/31 02:52:30;;;;;;;26.38;13.13;;;2.10;99.90;;;;;;5092243;27;20069;-95
2022/01/31 02:54:55;;;;;;;25.20;11.00;;;3.60;99.90;;;;;;5122230;27;20511;-94
2022/01/31 02:57:21;;;;;;;29.83;15.45;;;3.70;99.90;;;;;;5094123;28;20059;-94
2022/01/31 02:59:47;;;;;;;29.58;14.55;;;2.20;99.90;;;;;;5106990;28;20052;-93
2022/01/31 03:02:14;;;;;;;21.75;11.20;;;3.80;99.90;;;;;;5094570;28;20099;-95
2022/01/31 03:04:40;;;;;;;20.50;12.63;;;3.30;99.90;;;;;;5090753;28;20451;-94
2022/01/31 03:07:05;;;;;;;23.38;13.35;;;3.80;99.90;;;;;;5092092;28;20043;-94
2022/01/31 03:09:31;;;;;;;22.90;12.23;;;3.60;99.90;;;;;;5089989;28;20039;-95
2022/01/31 03:11:57;;;;;;;23.33;11.75;;;2.30;99.90;;;;;;5090991;28;20051;-93
2022/01/31 03:14:23;;;;;;;24.05;11.50;;;3.80;99.90;;;;;;5093873;28;20053;-95
2022/01/31 03:16:49;;;;;;;22.90;10.10;;;3.30;99.90;;;;;;5095676;28;20039;-94
2022/01/31 03:19:16;;;;;;;19.13;11.60;;;3.60;99.90;;;;;;5088580;28;20066;-94
2022/01/31 03:21:42;;;;;;;20.45;12.43;;;3.60;99.90;;;;;;5101140;28;20036;-94
2022/01/31 03:24:10;;;;;;;18.60;11.82;;;2.20;99.90;;;;;;5108687;28;20074;-94
2022/01/31 03:26:36;;;;;;;16.75;9.82;;;3.20;99.90;;;;;;5087393;28;20483;-94
2022/01/31 03:29:02;;;;;;;19.33;9.70;;;2.30;99.90;;;;;;5113605;28;20061;-93
2022/01/31 03:31:28;;;;;;;18.95;9.88;;;2.30;99.90;;;;;;5088965;28;20032;-93
2022/01/31 03:33:54;;;;;;;13.90;9.40;;;2.20;99.90;;;;;;5094433;28;20087;-94
2022/01/31 03:36:20;;;;;;;13.73;8.60;;;3.70;99.90;;;;;;5091322;28;20099;-94
2022/01/31 03:38:47;;;;;;;16.90;9.90;;;3.40;99.90;;;;;;5069377;28;20108;-92
2022/01/31 03:41:15;;;;;;;17.85;10.35;;;2.20;99.90;;;;;;5066745;28;20071;-92
2022/01/31 03:43:42;;;;;;;16.30;10.23;;;3.60;99.90;;;;;;5107168;28;20031;-93
2022/01/31 03:46:08;;;;;;;18.13;10.32;;;3.70;99.90;;;;;;5126491;28;20039;-94
2022/01/31 03:48:34;;;;;;;18.75;10.02;;;3.50;99.90;;;;;;5102539;28;20031;-92
2022/01/31 03:51:02;;;;;;;16.30;11.23;;;3.00;99.90;;;;;;5088791;28;20438;-93
2022/01/31 03:53:28;;;;;;;20.58;10.82;;;2.30;99.90;;;;;;5095409;28;20046;-94
2022/01/31 03:55:54;;;;;;;16.95;10.75;;;2.50;99.90;;;;;;5101556;28;20117;-94
2022/01/31 03:58:20;;;;;;;16.92;10.90;;;2.30;99.90;;;;;;5092734;28;20039;-92
2022/01/31 04:00:46;;;;;;;24.30;11.90;;;2.40;99.90;;;;;;5072219;28;20097;-94
2022/01/31 04:03:12;;;;;;;20.25;10.75;;;2.50;99.90;;;;;;5102730;28;20035;-95
2022/01/31 04:05:38;;;;;;;19.17;11.40;;;2.60;99.90;;;;;;5104828;28;20486;-93
2022/01/31 04:08:08;;;;;;;25.77;11.30;;;3.00;99.90;;;;;;5105966;27;20036;-95
2022/01/31 04:10:34;;;;;;;23.17;11.38;;;2.70;99.90;;;;;;5112798;27;20035;-92
2022/01/31 04:13:00;;;;;;;23.65;12.02;;;3.70;99.90;;;;;;5114131;27;20459;-94
2022/01/31 04:15:26;;;;;;;18.40;10.80;;;2.80;99.90;;;;;;5088480;27;20036;-92
2022/01/31 04:17:52;;;;;;;19.67;11.55;;;3.80;99.90;;;;;;5091806;27;20440;-93
2022/01/31 04:20:19;;;;;;;22.88;11.63;;;3.20;99.90;;;;;;5080933;27;20027;-94
2022/01/31 04:22:52;;;;;;;21.98;11.80;;;2.90;99.90;;;;;;5096616;27;20356;-92
2022/01/31 04:28:21;;;;;;;25.00;10.93;;;3.00;99.90;;;;;;5062578;27;20085;-94
2022/01/31 04:30:58;;;;;;;22.10;11.18;;;3.10;99.90;;;;;;5106136;27;20173;-93
2022/01/31 04:33:25;;;;;;;25.30;11.38;;;3.20;99.90;;;;;;5099793;28;20035;-93
2022/01/31 04:35:52;;;;;;;24.48;9.68;;;3.50;99.90;;;;;;5080081;27;20127;-93
2022/01/31 04:38:18;;;;;;;26.85;10.25;;;4.30;99.90;;;;;;5077288;27;20039;-93
2022/01/31 04:40:45;;;;;;;31.27;9.88;;;3.40;99.90;;;;;;5103453;27;20035;-92
2022/01/31 04:43:11;;;;;;;25.35;9.65;;;4.30;99.90;;;;;;5107780;27;20040;-92
2022/01/31 04:45:37;;;;;;;26.35;9.20;;;5.00;99.90;;;;;;5095199;27;20040;-92
2022/01/31 04:48:03;;;;;;;21.33;9.50;;;4.00;99.90;;;;;;5110398;27;20035;-93
2022/01/31 04:50:28;;;;;;;16.33;5.28;;;3.70;99.90;;;;;;5098147;27;20372;-92
2022/01/31 04:52:54;;;;;;;9.20;2.17;;;4.00;99.90;;;;;;5103811;28;20122;-92
2022/01/31 04:55:20;;;;;;;4.75;1.88;;;4.30;99.90;;;;;;5089014;27;20031;-92
2022/01/31 04:57:45;;;;;;;8.20;3.28;;;3.50;99.90;;;;;;5081853;27;20067;-92
2022/01/31 05:00:11;;;;;;;10.93;2.47;;;5.00;99.90;;;;;;5067091;28;20496;-90
2022/01/31 05:02:37;;;;;;;10.95;2.63;;;3.40;99.90;;;;;;5068329;27;20110;-92
2022/01/31 05:05:03;;;;;;;5.53;1.90;;;3.40;99.90;;;;;;5069796;28;20576;-93
2022/01/31 05:07:29;;;;;;;8.40;2.28;;;3.40;99.90;;;;;;5109458;28;20043;-93
2022/01/31 05:09:55;;;;;;;10.95;2.58;;;4.10;99.90;;;;;;5099114;28;20035;-93
2022/01/31 05:12:21;;;;;;;20.77;3.67;;;3.40;99.90;;;;;;5075437;27;20039;-91
2022/01/31 05:14:46;;;;;;;17.05;3.80;;;4.30;99.90;;;;;;5069192;27;20499;-92
2022/01/31 05:17:12;;;;;;;21.67;3.95;;;4.00;99.90;;;;;;5079715;27;20138;-92
2022/01/31 05:19:38;;;;;;;23.55;4.43;;;4.40;99.90;;;;;;5104977;27;20047;-91
2022/01/31 05:22:04;;;;;;;16.60;3.53;;;3.90;99.90;;;;;;5083726;27;20043;-92
2022/01/31 05:24:29;;;;;;;16.42;3.80;;;5.30;99.90;;;;;;5092091;27;20028;-93
2022/01/31 05:26:55;;;;;;;15.20;3.17;;;4.90;99.90;;;;;;5102669;27;20035;-92
2022/01/31 05:29:22;;;;;;;21.10;4.55;;;4.20;99.90;;;;;;5071179;28;20112;-93
2022/01/31 05:31:52;;;;;;;19.45;3.65;;;4.00;99.90;;;;;;5090401;27;20390;-91
2022/01/31 05:34:20;;;;;;;26.35;3.70;;;4.90;99.90;;;;;;5106242;28;20214;-92
2022/01/31 05:36:46;;;;;;;26.40;4.57;;;4.70;99.90;;;;;;5110164;27;20092;-93
2022/01/31 05:39:12;;;;;;;20.25;4.53;;;4.10;99.90;;;;;;5066415;27;20050;-93
2022/01/31 05:41:38;;;;;;;20.48;4.20;;;4.20;99.90;;;;;;5097026;27;20036;-92
2022/01/31 05:44:04;;;;;;;19.70;3.95;;;4.20;99.90;;;;;;5093215;27;20539;-93
2022/01/31 05:46:30;;;;;;;25.65;4.68;;;4.20;99.90;;;;;;5106121;27;20126;-93
2022/01/31 05:48:55;;;;;;;12.25;3.33;;;5.30;99.90;;;;;;5072611;28;20188;-94
2022/01/31 05:51:23;;;;;;;18.70;4.45;;;4.40;99.90;;;;;;5094609;27;20031;-93
2022/01/31 05:53:50;;;;;;;25.08;4.53;;;4.60;99.90;;;;;;5093773;27;20156;-92
2022/01/31 05:56:17;;;;;;;23.13;4.05;;;4.30;99.90;;;;;;5085252;27;21717;-93
2022/01/31 05:58:43;;;;;;;16.35;2.38;;;4.30;99.90;;;;;;5100769;27;20048;-92
2022/01/31 06:01:09;;;;;;;12.45;2.28;;;4.30;99.90;;;;;;5132932;27;20053;-92
2022/01/31 06:03:35;;;;;;;8.13;2.15;;;4.30;99.90;;;;;;5089235;27;20032;-91
2022/01/31 06:06:01;;;;;;;4.28;1.58;;;4.90;99.90;;;;;;5104543;27;20062;-92
2022/01/31 06:08:27;;;;;;;5.32;1.40;;;4.00;99.90;;;;;;5100224;27;20041;-94
2022/01/31 06:10:52;;;;;;;12.27;1.98;;;3.90;99.90;;;;;;5104796;27;20034;-92
2022/01/31 06:13:25;;;;;;;4.88;1.40;;;3.80;99.90;;;;;;5076840;27;20042;-93
2022/01/31 06:15:51;;;;;;;8.07;1.58;;;4.90;99.90;;;;;;5101480;27;20070;-93
2022/01/31 06:18:18;;;;;;;6.55;1.77;;;3.70;99.90;;;;;;5111622;27;20042;-93
2022/01/31 06:20:44;;;;;;;7.40;1.38;;;4.90;99.90;;;;;;5092541;27;20039;-93
2022/01/31 06:23:11;;;;;;;8.52;1.30;;;4.50;99.90;;;;;;5089027;27;20126;-93
2022/01/31 06:25:37;;;;;;;3.30;1.48;;;4.30;99.90;;;;;;5078925;27;20111;-93
2022/01/31 06:28:04;;;;;;;5.93;1.40;;;3.60;99.90;;;;;;5111127;27;20042;-92
2022/01/31 06:30:30;;;;;;;14.68;1.40;;;3.50;99.90;;;;;;5091909;27;20127;-93
2022/01/31 06:32:56;;;;;;;5.63;1.20;;;4.60;99.90;;;;;;5105050;27;20141;-93
2022/01/31 06:35:23;;;;;;;3.55;1.60;;;2.70;99.90;;;;;;5085256;27;20119;-93
2022/01/31 06:37:49;;;;;;;6.53;1.50;;;3.50;99.90;;;;;;5104656;27;20030;-93
2022/01/31 06:40:14;;;;;;;5.93;1.58;;;4.20;99.90;;;;;;5096848;27;20023;-91
2022/01/31 06:42:40;;;;;;;4.93;1.60;;;4.00;99.90;;;;;;5091237;27;20031;-91
2022/01/31 06:45:06;;;;;;;5.47;1.50;;;5.00;99.90;;;;;;5105398;27;20152;-93
2022/01/31 06:47:33;;;;;;;10.52;1.92;;;3.50;99.90;;;;;;5122185;27;20453;-93
2022/01/31 06:49:59;;;;;;;6.55;2.10;;;3.50;99.90;;;;;;5102572;27;20084;-93
2022/01/31 06:52:31;;;;;;;5.45;2.17;;;3.70;99.90;;;;;;5104912;27;20050;-93
2022/01/31 06:55:01;;;;;;;6.50;1.60;;;4.60;99.90;;;;;;5093338;27;20039;-95
2022/01/31 06:57:33;;;;;;;10.80;1.85;;;3.60;99.90;;;;;;5110934;27;20062;-94
2022/01/31 07:00:06;;;;;;;8.07;1.97;;;4.30;99.90;;;;;;5077915;27;20440;-95
2022/01/31 07:02:32;;;;;;;12.85;1.92;;;3.70;99.90;;;;;;5101484;27;20084;-96
2022/01/31 07:05:00;;;;;;;7.88;2.20;;;3.70;99.90;;;;;;5132971;27;20031;-96
2022/01/31 07:07:26;;;;;;;9.30;2.53;;;4.40;99.90;;;;;;5080489;27;20061;-96
2022/01/31 07:09:51;;;;;;;9.50;2.15;;;4.60;99.90;;;;;;5113183;27;20519;-95
2022/01/31 07:12:17;;;;;;;10.48;2.42;;;3.80;99.90;;;;;;5085520;27;20536;-96
2022/01/31 07:14:43;;;;;;;10.52;2.30;;;4.60;99.90;;;;;;5072888;27;20523;-93
2022/01/31 07:17:09;;;;;;;7.57;2.38;;;3.80;99.90;;;;;;5076277;27;20053;-94
2022/01/31 07:19:38;;;;;;;10.63;2.13;;;3.80;99.90;;;;;;5111581;27;20042;-95
2022/01/31 07:22:08;;;;;;;10.25;2.53;;;3.80;99.90;;;;;;5124640;27;20058;-95
2022/01/31 07:27:04;;;;;;;9.38;2.75;;;4.20;99.90;;;;;;5113196;27;20275;-96
2022/01/31 07:29:30;;;;;;;14.60;2.60;;;3.90;99.90;;;;;;5133054;27;20082;-96
2022/01/31 07:31:57;;;;;;;12.77;3.55;;;3.90;99.90;;;;;;5101927;27;20412;-96
2022/01/31 07:34:23;;;;;;;13.38;3.25;;;3.90;99.90;;;;;;5095453;27;20482;-96
2022/01/31 07:36:49;;;;;;;17.67;2.95;;;5.20;99.90;;;;;;5097631;28;20142;-96
2022/01/31 07:39:15;;;;;;;11.20;2.75;;;4.40;99.90;;;;;;5093579;28;20081;-96
2022/01/31 07:41:42;;;;;;;13.77;3.22;;;4.00;99.90;;;;;;5104982;27;20031;-95
2022/01/31 07:44:09;;;;;;;15.60;3.13;;;4.40;99.90;;;;;;5074441;27;20043;-96
2022/01/31 07:46:35;;;;;;;12.05;2.88;;;4.00;99.90;;;;;;5100668;27;20035;-96
2022/01/31 07:49:01;;;;;;;12.52;2.72;;;5.10;99.90;;;;;;5104019;27;20050;-85
2022/01/31 07:51:27;;;;;;;10.30;2.80;;;5.20;99.90;;;;;;5088592;27;20402;-93
2022/01/31 07:53:53;;;;;;;12.00;3.00;;;4.70;99.90;;;;;;5084357;27;20039;-91
2022/01/31 07:56:20;;;;;;;9.05;2.40;;;5.30;99.90;;;;;;5100955;27;20034;-92
2022/01/31 07:58:46;;;;;;;11.57;2.53;;;4.10;99.90;;;;;;5089097;27;20043;-95
2022/01/31 08:01:12;;;;;;;7.43;2.08;;;5.10;99.90;;;;;;5104508;27;20412;-88
2022/01/31 08:03:38;;;;;;;9.60;2.15;;;4.10;99.90;;;;;;5088104;27;20058;-96
2022/01/31 08:06:04;;;;;;;8.40;1.85;;;5.00;99.90;;;;;;5078323;27;20035;-95
2022/01/31 08:08:31;;;;;;;12.27;1.88;;;4.10;99.90;;;;;;5110530;27;20609;-96
2022/01/31 08:11:00;;;;;;;7.82;1.83;;;4.00;99.90;;;;;;5101324;27;20042;-96
2022/01/31 08:13:27;;;;;;;7.20;2.15;;;4.00;99.90;;;;;;5111103;27;20069;-96
2022/01/31 08:18:48;;;;;;;7.45;1.63;;;4.20;99.90;;;;;;5101898;27;20053;-90
2022/01/31 08:21:15;;;;;;;11.48;1.80;;;4.00;99.90;;;;;;5080077;27;20043;-95
2022/01/31 08:23:42;;;;;;;9.57;1.90;;;4.00;99.90;;;;;;5087988;27;20051;-95
2022/01/31 08:26:16;;;;;;;7.03;1.80;;;4.60;99.90;;;;;;5086975;27;20043;-91
2022/01/31 08:28:46;;;;;;;10.82;2.50;;;5.10;99.90;;;;;;5107028;27;20035;-95
2022/01/31 08:31:36;;;;;;;8.30;2.10;;;5.40;99.90;;;;;;5107832;27;20039;-95
2022/01/31 08:34:17;;;;;;;8.68;2.17;;;4.10;99.90;;;;;;5093051;27;20130;-96
2022/01/31 08:36:49;;;;;;;15.30;2.33;;;4.20;99.90;;;;;;5116298;27;20043;-96
2022/01/31 08:39:18;;;;;;;10.80;2.20;;;4.20;99.90;;;;;;5094079;23;20049;-90
2022/01/31 08:41:51;;;;;;;9.57;2.20;;;4.20;99.90;;;;;;5035942;28;20490;-91
2022/01/31 08:44:19;;;;;;;10.50;2.38;;;4.20;99.90;;;;;;5018639;28;20281;-91
2022/01/31 08:46:46;;;;;;;8.32;1.80;;;4.40;99.90;;;;;;5005572;28;20056;-91
2022/01/31 08:49:14;;;;;;;11.98;2.42;;;4.20;99.90;;;;;;5004146;28;20055;-91
2022/01/31 08:51:40;;;;;;;13.65;3.63;;;4.30;99.90;;;;;;5004342;28;20049;-90
2022/01/31 08:54:06;;;;;;;9.70;2.35;;;4.30;99.90;;;;;;4987574;28;20125;-91
2022/01/31 08:56:40;;;;;;;9.00;2.20;;;4.30;99.90;;;;;;5019448;28;20040;-91
2022/01/31 08:59:15;;;;;;;6.13;1.92;;;4.40;99.90;;;;;;5002094;28;20056;-91
2022/01/31 09:01:43;;;;;;;7.82;2.20;;;4.50;99.90;;;;;;5003321;28;20053;-91
2022/01/31 09:04:12;;;;;;;17.08;3.30;;;4.60;99.90;;;;;;5002488;28;20044;-91
2022/01/31 09:06:38;;;;;;;10.02;2.33;;;4.60;99.90;;;;;;5005394;28;20122;-92
2022/01/31 09:09:08;;;;;;;8.93;2.00;;;4.80;99.90;;;;;;5003424;28;20052;-91
2022/01/31 09:11:36;;;;;;;9.85;2.50;;;5.20;99.90;;;;;;5020907;28;20045;-91
2022/01/31 09:14:03;;;;;;;8.40;2.28;;;4.80;99.90;;;;;;5002839;28;20033;-92
2022/01/31 09:16:30;;;;;;;9.80;2.40;;;4.80;99.90;;;;;;5004967;28;20125;-91
2022/01/31 09:18:56;;;;;;;13.52;2.58;;;4.90;99.90;;;;;;5002876;28;20037;-91
2022/01/31 09:21:22;;;;;;;10.15;2.60;;;4.90;99.90;;;;;;5002791;28;20458;-92
2022/01/31 09:23:52;;;;;;;8.65;2.80;;;5.00;99.90;;;;;;5019789;28;20037;-91
2022/01/31 09:26:21;;;;;;;13.68;3.47;;;5.10;99.90;;;;;;5004064;28;20041;-92
2022/01/31 09:28:52;;;;;;;11.27;3.40;;;6.20;99.90;;;;;;5019570;28;20593;-91
2022/01/31 09:31:20;;;;;;;8.35;2.75;;;5.20;99.90;;;;;;5017904;28;20037;-92
2022/01/31 09:33:46;;;;;;;7.88;2.10;;;5.20;99.90;;;;;;5018719;28;20300;-92
2022/01/31 09:36:12;;;;;;;6.53;2.15;;;5.20;99.90;;;;;;5005823;28;20124;-91
2022/01/31 09:38:40;;;;;;;6.80;2.22;;;5.30;99.90;;;;;;5003505;28;20120;-92
2022/01/31 09:41:06;;;;;;;7.93;2.42;;;5.90;99.90;;;;;;4990024;28;20115;-92
2022/01/31 09:48:41;;;;;;;9.52;1.98;;;5.50;99.90;;;;;;5026433;28;20100;-93
2022/01/31 09:51:10;;;;;;;13.23;2.05;;;5.50;99.90;;;;;;4994513;28;20175;-93
2022/01/31 09:53:42;;;;;;;8.02;2.03;;;5.50;99.90;;;;;;5010569;28;20092;-92
2022/01/31 09:56:11;;;;;;;8.20;2.05;;;5.80;99.90;;;;;;5043876;28;20073;-92
2022/01/31 09:58:38;;;;;;;9.10;2.00;;;6.00;99.90;;;;;;5011802;28;20048;-92
2022/01/31 10:01:09;;;;;;;7.22;2.60;;;6.10;99.90;;;;;;5011038;28;20068;-92
2022/01/31 10:03:56;;;;;;;8.63;2.63;;;6.00;99.90;;;;;;5019626;28;20030;-91
2022/01/31 10:06:34;;;;;;;6.07;2.40;;;6.00;99.90;;;;;;5014552;28;20120;-92
2022/01/31 10:09:06;;;;;;;8.52;1.90;;;6.00;99.90;;;;;;5019248;28;20041;-92
2022/01/31 10:11:56;;;;;;;11.63;2.03;;;6.00;99.90;;;;;;5033401;28;20037;-91
2022/01/31 10:17:30;;;;;;;8.27;2.00;;;6.20;99.90;;;;;;5025087;28;20045;-93
2022/01/31 10:20:00;;;;;;;6.93;1.58;;;6.20;99.90;;;;;;5023988;28;20058;-93
2022/01/31 10:22:28;;;;;;;9.73;1.98;;;6.30;99.90;;;;;;5026604;28;20285;-93
2022/01/31 10:24:55;;;;;;;11.40;2.25;;;7.00;99.90;;;;;;5024755;28;20403;-93
2022/01/31 10:27:24;;;;;;;3.65;1.58;;;6.30;99.90;;;;;;5007765;28;20912;-92
2022/01/31 10:29:52;;;;;;;7.00;1.67;;;6.40;99.90;;;;;;5011597;28;20049;-92
2022/01/31 10:32:30;;;;;;;9.43;2.38;;;6.30;99.90;;;;;;5007491;28;20103;-92
2022/01/31 10:34:59;;;;;;;9.60;1.60;;;6.30;99.90;;;;;;5007323;28;20045;-92
2022/01/31 10:37:27;;;;;;;7.78;1.95;;;6.10;99.90;;;;;;5037249;28;20038;-93
2022/01/31 10:45:49;;;;;;;7.30;1.58;;;6.50;99.90;;;;;;5027657;28;20085;-93
2022/01/31 10:53:48;;;;;;;6.03;1.95;;;6.70;99.90;;;;;;5018714;28;20041;-92
2022/01/31 10:56:15;;;;;;;8.32;1.60;;;6.70;99.90;;;;;;5024280;28;20049;-93
2022/01/31 10:59:02;;;;;;;11.27;1.75;;;6.90;99.90;;;;;;5011491;28;20060;-93
2022/01/31 11:01:29;;;;;;;9.10;2.55;;;7.00;99.90;;;;;;5014483;28;20499;-90
2022/01/31 11:03:57;;;;;;;6.20;1.63;;;6.90;99.90;;;;;;5010607;28;20173;-93
2022/01/31 11:06:24;;;;;;;8.50;1.73;;;6.80;99.90;;;;;;5047597;28;20041;-92
2022/01/31 11:08:51;;;;;;;8.57;1.75;;;6.70;99.90;;;;;;5010436;28;20079;-92
2022/01/31 11:11:20;;;;;;;6.40;1.90;;;6.70;99.90;;;;;;5005348;28;20076;-90
2022/01/31 11:14:00;;;;;;;6.90;2.05;;;6.50;99.90;;;;;;5007628;28;20037;-93
2022/01/31 11:17:16;;;;;;;8.77;1.85;;;6.50;99.90;;;;;;5025713;28;20029;-92
2022/01/31 11:23:28;;;;;;;9.32;1.92;;;6.40;99.90;;;;;;5030547;28;20436;-93
2022/01/31 11:26:01;;;;;;;4.63;1.50;;;6.40;99.90;;;;;;5023205;28;20083;-93
2022/01/31 11:28:30;;;;;;;9.57;2.38;;;6.40;99.90;;;;;;5053123;28;20441;-93
2022/01/31 11:30:57;;;;;;;11.88;1.77;;;6.40;99.90;;;;;;5024003;28;20473;-93
2022/01/31 11:33:26;;;;;;;8.90;1.92;;;6.40;99.90;;;;;;5003915;28;20033;-92
2022/01/31 11:36:20;;;;;;;10.70;1.90;;;6.40;99.90;;;;;;5007470;28;20048;-93
2022/01/31 11:38:46;;;;;;;10.30;1.83;;;6.40;99.90;;;;;;4997805;28;20049;-91
2022/01/31 11:41:16;;;;;;;10.05;2.20;;;6.50;99.90;;;;;;5007504;28;20107;-92
2022/01/31 11:44:04;;;;;;;5.53;1.88;;;6.60;99.90;;;;;;5007466;28;20151;-91
2022/01/31 11:46:33;;;;;;;13.55;2.00;;;6.60;99.90;;;;;;5007541;28;20088;-90
2022/01/31 11:49:19;;;;;;;12.10;2.38;;;6.60;99.90;;;;;;5024112;28;20038;-91
2022/01/31 11:52:06;;;;;;;8.82;2.03;;;6.60;99.90;;;;;;5005606;28;20053;-92
2022/01/31 11:54:54;;;;;;;10.27;1.85;;;6.80;99.90;;;;;;5006147;28;20557;-91
2022/01/31 11:57:31;;;;;;;8.55;2.08;;;6.80;99.90;;;;;;5009626;28;20045;-91
2022/01/31 12:00:12;;;;;;;8.88;2.17;;;6.90;99.90;;;;;;5021347;28;20037;-91
2022/01/31 12:02:50;;;;;;;9.55;2.05;;;7.00;99.90;;;;;;5004711;28;20498;-91
2022/01/31 12:05:22;;;;;;;7.82;2.15;;;7.10;99.90;;;;;;5005454;28;20049;-91
2022/01/31 12:07:59;;;;;;;13.33;2.20;;;7.30;99.90;;;;;;5016310;28;20520;-91
2022/01/31 12:10:32;;;;;;;10.98;1.95;;;7.40;99.90;;;;;;5020148;28;20291;-90
2022/01/31 12:13:11;;;;;;;10.45;2.13;;;7.50;99.90;;;;;;5025678;28;20095;-91
2022/01/31 12:15:52;;;;;;;10.48;2.17;;;7.50;99.90;;;;;;5019408;28;20046;-91
2022/01/31 12:23:40;;;;;;;7.55;1.90;;;7.20;99.90;;;;;;5023477;28;20057;-91
2022/01/31 12:27:00;;;;;;;8.90;2.00;;;7.30;99.90;;;;;;5011058;28;20152;-90
2022/01/31 12:29:31;;;;;;;11.18;2.35;;;7.40;99.90;;;;;;5023379;28;20037;-90
2022/01/31 12:32:13;;;;;;;14.40;3.17;;;7.40;99.90;;;;;;5025690;28;20045;-91
2022/01/31 12:35:01;;;;;;;9.80;2.55;;;7.40;99.90;;;;;;5041863;28;20452;-91
2022/01/31 12:37:34;;;;;;;9.60;2.85;;;7.50;99.90;;;;;;5052413;28;20904;-90
2022/01/31 12:40:15;;;;;;;12.23;2.60;;;7.40;99.90;;;;;;5053647;28;20053;-90
2022/01/31 12:45:51;;;;;;;10.93;2.15;;;7.60;99.90;;;;;;5025356;28;20397;-90
2022/01/31 12:48:24;;;;;;;10.48;2.28;;;7.60;99.90;;;;;;5025634;28;20183;-91
2022/01/31 12:50:56;;;;;;;11.20;3.47;;;7.50;99.90;;;;;;5023437;28;20072;-89
2022/01/31 12:56:08;;;;;;;8.23;2.20;;;7.50;99.90;;;;;;5025936;28;20045;-90
2022/01/31 12:58:45;;;;;;;13.95;3.42;;;7.70;99.90;;;;;;5008469;28;20387;-90
2022/01/31 13:01:26;;;;;;;15.32;2.50;;;7.80;99.90;;;;;;5040089;28;20506;-91
2022/01/31 13:04:00;;;;;;;17.23;2.78;;;7.70;99.90;;;;;;5018322;28;20052;-88
2022/01/31 13:06:35;;;;;;;11.88;2.83;;;7.50;99.90;;;;;;5006914;28;20388;-89
2022/01/31 13:09:15;;;;;;;11.95;3.15;;;7.40;99.90;;;;;;5023022;28;20099;-90
2022/01/31 13:11:44;;;;;;;11.95;2.53;;;7.50;99.90;;;;;;5025098;28;20256;-90
2022/01/31 13:14:19;;;;;;;21.08;3.17;;;7.70;99.90;;;;;;5023757;28;20780;-89
2022/01/31 13:17:10;;;;;;;8.20;2.75;;;7.90;99.90;;;;;;5023230;28;20522;-89
2022/01/31 13:19:38;;;;;;;12.98;3.15;;;8.00;99.90;;;;;;5022515;28;20046;-88
2022/01/31 13:22:39;;;;;;;10.07;2.25;;;8.00;99.90;;;;;;5005459;28;20116;-87
2022/01/31 13:25:13;;;;;;;13.57;2.92;;;7.80;99.90;;;;;;5020861;28;20453;-89
2022/01/31 13:27:46;;;;;;;11.48;3.17;;;7.60;99.90;;;;;;5025556;28;20533;-89
2022/01/31 13:30:19;;;;;;;14.00;2.92;;;7.60;99.90;;;;;;4995830;28;20123;-89
2022/01/31 13:32:47;;;;;;;19.17;3.45;;;7.60;99.90;;;;;;5018582;28;20049;-89
2022/01/31 13:35:17;;;;;;;8.85;2.42;;;7.70;99.90;;;;;;5003668;28;20037;-88
2022/01/31 13:38:12;;;;;;;12.30;3.13;;;7.70;99.90;;;;;;5009650;28;20037;-88
2022/01/31 13:45:01;;;;;;;14.15;2.90;;;7.50;99.90;;;;;;4970314;28;20046;-89